Time;durP1;ratioP1;P1;durP2;ratioP2;P2;SDS_P1;SDS_P2;PMS_P1;PMS_P2;Temp;Humidity;BMP_temperature;BMP_pressure;BME280_temperature;BME280_humidity;BME280_pressure;Samples;Min_cycle;Max_cycle;Signal;HPM_P1;HPM_P2
2022/08/12 00:43:37;;;;;;;1.47;0.90;;;22.10;73.70;;;;;;5060216;28;20501;-75
2022/08/12 00:48:49;;;;;;;1.47;0.90;;;22.00;73.40;;;;;;5052029;28;20452;-76
2022/08/12 00:51:20;;;;;;;1.43;0.90;;;22.00;74.30;;;;;;5040983;28;20486;-74
2022/08/12 00:53:47;;;;;;;1.47;0.90;;;21.90;74.80;;;;;;5052222;28;20470;-74
2022/08/12 00:56:16;;;;;;;1.47;0.90;;;21.80;74.50;;;;;;5045259;28;20474;-75
2022/08/12 00:58:49;;;;;;;1.47;0.90;;;21.80;74.50;;;;;;5052688;28;20495;-75
2022/08/12 01:01:17;;;;;;;1.40;0.90;;;21.80;74.40;;;;;;5045905;28;20480;-74
2022/08/12 01:12:09;;;;;;;1.47;0.90;;;21.60;75.00;;;;;;5052639;28;20568;-75
2022/08/12 01:14:39;;;;;;;1.50;0.90;;;21.50;76.00;;;;;;5059923;28;20462;-74
2022/08/12 01:17:07;;;;;;;1.43;0.90;;;21.50;76.40;;;;;;5055644;28;20912;-74
2022/08/12 01:19:34;;;;;;;1.50;0.90;;;21.40;75.90;;;;;;5037139;28;20469;-76
2022/08/12 01:22:18;;;;;;;1.50;1.10;;;21.40;76.20;;;;;;5030749;28;20478;-74
2022/08/12 01:25:04;;;;;;;1.43;0.90;;;21.40;77.00;;;;;;5048209;28;21013;-74
2022/08/12 01:27:33;;;;;;;1.50;0.90;;;21.30;77.10;;;;;;5054611;28;20571;-74
2022/08/12 01:30:03;;;;;;;1.43;0.90;;;21.30;77.10;;;;;;5052925;28;20458;-75
2022/08/12 01:32:33;;;;;;;1.43;0.90;;;21.30;76.70;;;;;;5049922;28;20490;-75
2022/08/12 01:35:06;;;;;;;1.50;0.90;;;21.20;77.30;;;;;;5057146;28;20529;-75
2022/08/12 01:37:36;;;;;;;1.43;0.90;;;21.20;77.70;;;;;;5075255;28;20508;-74
2022/08/12 01:40:09;;;;;;;1.40;0.90;;;21.20;77.90;;;;;;5044528;28;20459;-74
2022/08/12 01:42:44;;;;;;;1.43;0.90;;;21.10;78.30;;;;;;5037745;28;20772;-75
2022/08/12 01:45:12;;;;;;;1.43;0.90;;;21.10;78.50;;;;;;5042713;28;20469;-75
2022/08/12 01:47:50;;;;;;;1.50;1.00;;;21.00;77.90;;;;;;5047971;28;20503;-75
2022/08/12 01:50:25;;;;;;;1.47;0.90;;;21.00;78.70;;;;;;5046874;28;20615;-74
2022/08/12 01:52:58;;;;;;;1.47;0.90;;;21.00;79.30;;;;;;5037750;28;20494;-74
2022/08/12 01:55:29;;;;;;;1.43;0.90;;;21.00;80.20;;;;;;5044186;28;20940;-75
2022/08/12 01:58:10;;;;;;;1.50;0.90;;;20.90;79.20;;;;;;5038266;28;20510;-75
2022/08/12 02:00:47;;;;;;;1.47;0.90;;;20.90;80.30;;;;;;5036936;28;20470;-75
2022/08/12 02:03:26;;;;;;;1.47;0.90;;;20.90;79.00;;;;;;5052994;28;20470;-74
2022/08/12 02:11:51;;;;;;;1.47;0.90;;;20.70;80.20;;;;;;5042439;28;20515;-74
2022/08/12 02:14:45;;;;;;;1.43;0.90;;;20.70;81.20;;;;;;5056493;28;20550;-75
2022/08/12 02:17:29;;;;;;;1.47;1.00;;;20.70;81.50;;;;;;5044223;28;20485;-74
2022/08/12 02:20:11;;;;;;;1.47;0.90;;;20.60;81.80;;;;;;5052537;28;20462;-74
2022/08/12 02:22:43;;;;;;;2.70;2.03;;;20.60;81.80;;;;;;5039030;28;20802;-74
2022/08/12 02:25:19;;;;;;;1.47;1.00;;;20.60;81.60;;;;;;5049422;28;20841;-75
2022/08/12 02:27:49;;;;;;;1.47;0.90;;;20.50;82.70;;;;;;5049720;28;20516;-74
2022/08/12 02:30:19;;;;;;;1.40;0.90;;;20.50;81.90;;;;;;5043524;28;20908;-74
2022/08/12 02:32:49;;;;;;;1.50;1.00;;;20.50;82.30;;;;;;5046395;28;20486;-74
2022/08/12 02:35:18;;;;;;;1.47;0.90;;;20.40;83.00;;;;;;5042692;28;20478;-75
2022/08/12 02:37:47;;;;;;;1.50;0.90;;;20.40;83.50;;;;;;5055864;28;20509;-74
2022/08/12 02:40:16;;;;;;;1.43;0.90;;;20.40;85.10;;;;;;5036667;28;20463;-74
2022/08/12 02:42:52;;;;;;;1.50;0.90;;;20.40;84.50;;;;;;5044786;28;20459;-74
2022/08/12 02:45:24;;;;;;;1.47;0.90;;;20.40;86.00;;;;;;5048325;28;20466;-74
2022/08/12 02:47:54;;;;;;;1.47;0.90;;;20.30;85.30;;;;;;5038606;28;20485;-74
2022/08/12 02:50:24;;;;;;;1.47;0.90;;;20.30;85.20;;;;;;5040103;28;20947;-74
2022/08/12 02:52:52;;;;;;;1.50;1.20;;;20.30;86.10;;;;;;5050257;28;20485;-74
2022/08/12 02:55:22;;;;;;;1.50;0.90;;;20.30;86.10;;;;;;5036223;28;20471;-75
2022/08/12 02:57:51;;;;;;;1.43;0.90;;;20.20;86.40;;;;;;5041975;28;20570;-75
2022/08/12 03:00:18;;;;;;;1.40;0.90;;;20.20;86.80;;;;;;5032803;28;20493;-75
2022/08/12 03:02:47;;;;;;;1.40;0.90;;;20.20;87.10;;;;;;5052399;28;20680;-75
2022/08/12 03:05:17;;;;;;;1.50;0.90;;;20.20;87.60;;;;;;5031330;28;20970;-75
2022/08/12 03:07:47;;;;;;;1.40;0.90;;;20.10;88.40;;;;;;5044794;28;20492;-74
2022/08/12 03:10:15;;;;;;;1.40;0.90;;;20.10;87.90;;;;;;5043239;28;21002;-74
2022/08/12 03:12:45;;;;;;;1.50;0.90;;;20.10;87.60;;;;;;5037621;28;20481;-74
2022/08/12 03:15:17;;;;;;;1.50;0.90;;;20.00;88.90;;;;;;5037686;28;20502;-75
2022/08/12 03:17:50;;;;;;;1.50;0.90;;;20.00;88.60;;;;;;5048927;28;20493;-75
2022/08/12 03:20:20;;;;;;;1.47;0.90;;;20.00;89.70;;;;;;5047455;28;20844;-74
2022/08/12 03:22:48;;;;;;;1.47;0.90;;;20.00;89.40;;;;;;5037960;28;20478;-75
2022/08/12 03:25:23;;;;;;;1.50;0.90;;;19.90;88.80;;;;;;5030101;28;20474;-74
2022/08/12 03:27:54;;;;;;;1.50;0.90;;;19.90;88.70;;;;;;5038064;28;20566;-74
2022/08/12 03:30:25;;;;;;;1.43;0.90;;;19.90;88.70;;;;;;5042116;28;20542;-74
2022/08/12 03:32:53;;;;;;;1.43;0.90;;;19.80;88.30;;;;;;5035664;28;21045;-74
2022/08/12 03:35:26;;;;;;;1.40;0.90;;;19.80;88.20;;;;;;5045441;28;20951;-74
2022/08/12 03:37:56;;;;;;;1.47;0.90;;;19.80;87.40;;;;;;5049456;28;20493;-75
2022/08/12 04:02:57;;;;;;;1.60;0.97;;;19.60;88.40;;;;;;5052207;28;21221;-74
2022/08/12 04:05:25;;;;;;;1.47;0.90;;;19.60;88.40;;;;;;5040351;28;20470;-75
2022/08/12 04:07:53;;;;;;;1.50;0.90;;;19.60;89.20;;;;;;5041912;28;20603;-74
2022/08/12 04:10:20;;;;;;;1.43;0.90;;;19.50;88.80;;;;;;5043988;28;20461;-74
2022/08/12 04:15:42;;;;;;;1.47;0.90;;;19.50;88.90;;;;;;5033756;28;20776;-75
2022/08/12 04:18:12;;;;;;;1.50;1.00;;;19.50;88.40;;;;;;5050244;28;20860;-76
2022/08/12 04:20:41;;;;;;;1.50;0.90;;;19.50;88.10;;;;;;5047573;28;20490;-75
2022/08/12 04:23:11;;;;;;;1.50;0.90;;;19.50;88.00;;;;;;5037100;28;20474;-75
2022/08/12 04:25:40;;;;;;;1.43;1.00;;;19.50;88.50;;;;;;5028675;28;20467;-75
2022/08/12 04:28:10;;;;;;;1.50;0.90;;;19.40;89.10;;;;;;5049227;28;21014;-75
2022/08/12 04:30:38;;;;;;;1.47;0.90;;;19.40;89.00;;;;;;5046036;28;20473;-74
2022/08/12 04:33:09;;;;;;;1.43;0.90;;;19.40;88.80;;;;;;5050278;28;20499;-75
2022/08/12 04:35:38;;;;;;;1.50;1.00;;;19.40;89.70;;;;;;5056606;28;20466;-73
2022/08/12 04:38:06;;;;;;;1.47;0.90;;;19.40;89.60;;;;;;5062413;28;20490;-76
2022/08/12 04:40:35;;;;;;;1.47;0.90;;;19.40;89.50;;;;;;5046801;28;20514;-76
2022/08/12 04:43:03;;;;;;;1.40;0.90;;;19.40;88.50;;;;;;5053564;28;20475;-75
2022/08/12 04:45:33;;;;;;;1.50;0.90;;;19.40;89.00;;;;;;5041063;28;20589;-75
2022/08/12 04:48:01;;;;;;;1.47;0.90;;;19.40;90.10;;;;;;5074657;28;20556;-74
2022/08/12 04:50:30;;;;;;;1.50;0.90;;;19.40;89.60;;;;;;5076404;28;20477;-75
2022/08/12 04:53:00;;;;;;;1.40;0.90;;;19.40;89.30;;;;;;5061398;28;20503;-76
2022/08/12 04:55:31;;;;;;;1.50;0.97;;;19.40;90.30;;;;;;5055031;28;20474;-76
2022/08/12 04:58:00;;;;;;;1.40;0.90;;;19.40;91.00;;;;;;5055583;28;20478;-75
2022/08/12 05:00:28;;;;;;;1.47;0.90;;;19.40;90.50;;;;;;5056413;28;20828;-76
2022/08/12 05:02:58;;;;;;;1.43;0.90;;;19.40;89.60;;;;;;5055677;28;20823;-75
2022/08/12 05:05:37;;;;;;;1.40;0.90;;;19.50;90.00;;;;;;5059775;28;20620;-76
2022/08/12 05:08:12;;;;;;;1.50;0.90;;;19.50;90.30;;;;;;5056366;28;20478;-75
2022/08/12 05:10:40;;;;;;;1.50;0.90;;;19.60;90.30;;;;;;5060793;28;20887;-75
2022/08/12 05:13:13;;;;;;;1.40;0.90;;;19.60;89.30;;;;;;5060442;28;20514;-75
2022/08/12 05:15:42;;;;;;;1.40;0.90;;;19.60;90.50;;;;;;5058148;28;20458;-76
2022/08/12 05:18:10;;;;;;;1.43;0.90;;;19.70;90.10;;;;;;5061090;28;20499;-76
2022/08/12 05:20:38;;;;;;;1.50;1.00;;;19.80;89.90;;;;;;5046306;28;20465;-76
2022/08/12 05:23:08;;;;;;;1.50;0.90;;;19.80;89.20;;;;;;5056816;28;20500;-76
2022/08/12 05:25:36;;;;;;;1.40;0.90;;;20.00;90.30;;;;;;5057001;28;20462;-75
2022/08/12 05:28:05;;;;;;;1.40;0.90;;;20.10;88.70;;;;;;5057118;28;20482;-76
2022/08/12 05:30:35;;;;;;;1.43;0.90;;;20.30;86.10;;;;;;5057821;28;20454;-76
2022/08/12 05:33:05;;;;;;;1.50;0.90;;;20.50;85.00;;;;;;5063164;28;20480;-76
2022/08/12 05:35:35;;;;;;;1.50;0.90;;;20.60;85.40;;;;;;5045425;28;20553;-77
2022/08/12 05:40:52;;;;;;;1.43;0.90;;;21.00;85.20;;;;;;5062644;28;20481;-77
2022/08/12 05:43:20;;;;;;;1.47;0.90;;;21.20;83.40;;;;;;5058317;28;20462;-75
2022/08/12 05:45:56;;;;;;;1.43;0.90;;;21.40;84.00;;;;;;5052401;28;20502;-77
2022/08/12 05:48:25;;;;;;;1.47;0.90;;;21.70;83.60;;;;;;5039557;28;20487;-77
2022/08/12 05:50:52;;;;;;;1.50;0.93;;;22.00;82.20;;;;;;5043915;28;20474;-74
2022/08/12 05:53:21;;;;;;;1.43;0.90;;;22.20;81.10;;;;;;5069679;28;20486;-76
2022/08/12 05:55:52;;;;;;;1.43;0.90;;;22.40;80.00;;;;;;5035060;28;20501;-77
2022/08/12 05:58:20;;;;;;;1.43;0.90;;;22.70;79.90;;;;;;5065502;28;20516;-76
2022/08/12 06:00:48;;;;;;;1.47;0.90;;;22.80;79.10;;;;;;5045835;28;20461;-78
2022/08/12 06:03:16;;;;;;;1.47;0.90;;;23.10;79.30;;;;;;5071914;28;20481;-77
2022/08/12 06:05:48;;;;;;;1.47;0.90;;;23.30;79.10;;;;;;5058182;28;20493;-77
2022/08/12 06:08:16;;;;;;;1.50;0.90;;;23.60;76.90;;;;;;5051761;28;20511;-75
2022/08/12 06:10:44;;;;;;;1.50;0.87;;;23.90;76.10;;;;;;5054442;28;20486;-76
2022/08/12 06:13:14;;;;;;;2.00;1.10;;;24.30;74.40;;;;;;5054341;28;20482;-76
2022/08/12 06:15:42;;;;;;;1.47;0.90;;;24.60;72.00;;;;;;5049889;28;20545;-77
2022/08/12 06:18:14;;;;;;;1.47;0.90;;;24.80;69.30;;;;;;5045489;28;20494;-76
2022/08/12 06:20:44;;;;;;;1.43;0.90;;;24.80;69.10;;;;;;5057241;28;20467;-77
2022/08/12 06:23:14;;;;;;;1.43;0.90;;;25.00;68.30;;;;;;5046159;28;20466;-77
2022/08/12 06:25:42;;;;;;;1.43;0.90;;;25.10;67.40;;;;;;5053860;28;20532;-76
2022/08/12 06:28:16;;;;;;;1.50;0.90;;;25.10;67.00;;;;;;5047468;28;20492;-78
2022/08/12 06:30:44;;;;;;;1.47;0.90;;;25.10;67.00;;;;;;5051429;28;20489;-77
2022/08/12 06:33:19;;;;;;;1.40;0.90;;;25.10;67.60;;;;;;5049984;28;20463;-80
2022/08/12 06:35:48;;;;;;;1.50;1.00;;;25.10;66.90;;;;;;5055292;28;20465;-78
2022/08/12 06:38:17;;;;;;;1.47;0.80;;;25.10;67.40;;;;;;5044654;28;20475;-77
2022/08/12 06:43:32;;;;;;;1.43;0.90;;;25.50;66.70;;;;;;5052038;28;20534;-77
2022/08/12 06:46:00;;;;;;;1.47;0.87;;;25.80;66.60;;;;;;5048501;28;20554;-78
2022/08/12 06:48:29;;;;;;;1.50;1.00;;;25.80;65.80;;;;;;5065643;28;20615;-78
2022/08/12 06:50:57;;;;;;;1.47;0.90;;;26.00;66.30;;;;;;5039928;28;20478;-77
2022/08/12 06:53:34;;;;;;;1.50;0.90;;;26.10;65.70;;;;;;5051870;28;20569;-79
2022/08/12 06:56:01;;;;;;;1.50;1.00;;;26.00;65.70;;;;;;5046203;28;20458;-78
2022/08/12 06:58:31;;;;;;;1.43;0.90;;;26.10;65.40;;;;;;5062262;28;20479;-78
2022/08/12 07:01:00;;;;;;;1.43;0.83;;;26.20;65.50;;;;;;5042362;28;20510;-76
2022/08/12 07:03:28;;;;;;;1.47;0.80;;;26.30;65.50;;;;;;5048869;28;20451;-78
2022/08/12 07:05:58;;;;;;;1.47;0.90;;;26.50;65.10;;;;;;5032710;28;20458;-77
2022/08/12 07:08:27;;;;;;;1.50;0.90;;;26.60;65.20;;;;;;5064869;28;20478;-78
2022/08/12 07:10:57;;;;;;;1.70;1.10;;;26.90;64.90;;;;;;5037239;28;20561;-78
2022/08/12 07:13:27;;;;;;;1.40;0.80;;;27.00;64.00;;;;;;5068780;28;20870;-78
2022/08/12 07:15:58;;;;;;;1.47;0.90;;;27.10;65.00;;;;;;5031035;28;20588;-78
2022/08/12 07:18:31;;;;;;;1.83;1.73;;;27.30;64.40;;;;;;5076465;28;20486;-78
2022/08/12 07:21:03;;;;;;;1.50;0.80;;;27.50;63.50;;;;;;5063467;28;20470;-78
2022/08/12 07:23:32;;;;;;;1.50;0.80;;;27.60;63.20;;;;;;5085366;28;20458;-78
2022/08/12 07:26:01;;;;;;;2.13;1.93;;;27.60;62.80;;;;;;5046394;28;20458;-77
2022/08/12 07:28:32;;;;;;;1.43;0.80;;;27.70;62.50;;;;;;5057750;28;20490;-77
2022/08/12 07:31:08;;;;;;;1.47;0.80;;;27.70;62.10;;;;;;5036491;28;20490;-79
2022/08/12 07:33:40;;;;;;;1.43;0.80;;;27.80;62.80;;;;;;5056945;28;20482;-78
2022/08/12 07:36:12;;;;;;;1.47;0.80;;;27.90;62.60;;;;;;5043908;28;20617;-76
2022/08/12 07:38:42;;;;;;;2.93;2.20;;;28.10;61.50;;;;;;5069822;28;20485;-76
2022/08/12 07:41:14;;;;;;;1.40;0.80;;;28.30;61.30;;;;;;5059894;28;20462;-76
2022/08/12 07:43:44;;;;;;;1.50;0.90;;;28.40;60.80;;;;;;5057499;28;20961;-77
2022/08/12 07:46:18;;;;;;;1.97;1.63;;;28.50;60.30;;;;;;5047092;28;20486;-76
2022/08/12 07:48:48;;;;;;;1.40;0.80;;;28.70;59.80;;;;;;5055666;28;20535;-77
2022/08/12 07:51:31;;;;;;;1.43;0.80;;;28.90;59.60;;;;;;5032633;28;20481;-76
2022/08/12 07:54:00;;;;;;;1.43;0.80;;;28.90;58.40;;;;;;5050154;28;20680;-76
2022/08/12 07:56:29;;;;;;;1.40;0.80;;;29.00;58.90;;;;;;5047266;28;20885;-78
2022/08/12 07:58:57;;;;;;;1.63;1.37;;;29.20;58.10;;;;;;5049981;28;20492;-78
2022/08/12 08:01:26;;;;;;;1.43;0.80;;;29.40;57.60;;;;;;5036444;28;20481;-77
2022/08/12 08:06:41;;;;;;;1.40;0.80;;;29.40;56.80;;;;;;5041299;28;20484;-77
2022/08/12 08:09:11;;;;;;;1.47;0.80;;;29.50;57.30;;;;;;5054688;28;20458;-76
2022/08/12 08:14:28;;;;;;;1.43;0.90;;;29.90;56.70;;;;;;5053818;28;20691;-78
2022/08/12 08:16:58;;;;;;;1.47;0.80;;;29.90;56.30;;;;;;5050517;28;20501;-78
2022/08/12 08:19:27;;;;;;;1.70;1.00;;;30.00;55.80;;;;;;5052188;28;20610;-81
2022/08/12 08:21:56;;;;;;;1.43;0.80;;;30.00;55.90;;;;;;5050651;28;20560;-77
2022/08/12 08:24:26;;;;;;;1.50;0.80;;;30.10;56.30;;;;;;5048911;28;20726;-78
2022/08/12 08:32:17;;;;;;;1.43;0.80;;;30.50;55.20;;;;;;5014595;28;20474;-82
2022/08/12 08:34:53;;;;;;;1.47;0.90;;;30.60;54.60;;;;;;5034273;28;20520;-79
2022/08/12 08:37:47;;;;;;;1.50;0.90;;;30.80;54.50;;;;;;5031060;28;20475;-80
2022/08/12 08:43:19;;;;;;;1.40;0.80;;;31.00;54.10;;;;;;5024453;28;20509;-80
2022/08/12 08:53:12;;;;;;;1.40;0.80;;;31.10;53.30;;;;;;4916764;29;20460;-79
2022/08/12 08:56:26;;;;;;;;;;;;;;;;;;;;;
2022/08/12 09:46:40;;;;;;;1.43;0.90;;;32.20;49.20;;;;;;4916003;29;20748;-78
2022/08/12 09:56:30;;;;;;;1.40;0.80;;;32.40;49.80;;;;;;4859214;29;20475;-81
2022/08/12 09:58:58;;;;;;;1.40;0.80;;;32.70;49.70;;;;;;4967691;28;20595;-79
2022/08/12 10:01:28;;;;;;;1.40;0.80;;;32.90;49.20;;;;;;4964953;28;20252;-81
2022/08/12 10:03:57;;;;;;;1.40;0.80;;;33.00;49.70;;;;;;5032424;28;20315;-79
2022/08/12 10:06:37;;;;;;;2.00;1.43;;;33.20;49.30;;;;;;5032062;28;20798;-79
2022/08/12 10:09:38;;;;;;;1.90;1.47;;;33.30;48.20;;;;;;5052105;28;20233;-80
2022/08/12 10:16:02;;;;;;;1.80;1.20;;;33.00;49.00;;;;;;5051132;28;20206;-79
2022/08/12 10:18:34;;;;;;;1.40;0.80;;;33.40;48.80;;;;;;5024595;28;20723;-79
2022/08/12 10:21:35;;;;;;;1.40;0.80;;;33.40;47.70;;;;;;5043107;28;20671;-78
2022/08/12 10:29:46;;;;;;;1.40;0.80;;;33.10;49.00;;;;;;5043924;28;20234;-79
2022/08/12 10:32:20;;;;;;;1.40;0.80;;;33.50;48.10;;;;;;5037590;28;20243;-79
2022/08/12 10:34:48;;;;;;;1.40;0.80;;;33.40;47.70;;;;;;5050190;28;20199;-81
2022/08/12 10:37:25;;;;;;;1.40;0.80;;;33.10;47.70;;;;;;5031844;28;20250;-79
2022/08/12 10:40:31;;;;;;;1.40;0.80;;;33.10;49.70;;;;;;5051090;28;20219;-80
2022/08/12 10:43:49;;;;;;;1.40;0.90;;;33.50;48.10;;;;;;4963299;28;20776;-81
2022/08/12 10:46:24;;;;;;;1.40;0.80;;;33.60;46.90;;;;;;4956698;28;21248;-80
2022/08/12 10:53:10;;;;;;;1.40;0.90;;;33.50;47.10;;;;;;4921636;28;20233;-80
2022/08/12 10:56:12;;;;;;;1.40;0.80;;;33.90;47.10;;;;;;4973247;28;20209;-80
2022/08/12 10:59:01;;;;;;;1.47;1.10;;;34.40;47.40;;;;;;4947702;28;20237;-79
2022/08/12 11:01:57;;;;;;;;;;;;;;;;;;;;;
2022/08/12 11:04:27;;;;;;;1.40;0.80;;;34.80;46.30;;;;;;5023069;28;20489;-80
2022/08/12 11:07:26;;;;;;;1.40;0.80;;;35.10;46.80;;;;;;5042514;28;20230;-80
2022/08/12 11:10:19;;;;;;;1.40;0.80;;;34.90;45.60;;;;;;5049163;28;20231;-79
2022/08/12 11:13:05;;;;;;;1.50;1.00;;;34.80;45.30;;;;;;5021938;28;20228;-80
2022/08/12 11:16:37;;;;;;;1.40;0.80;;;34.80;46.10;;;;;;5027746;28;20267;-78
2022/08/12 11:19:36;;;;;;;1.40;0.80;;;34.70;44.20;;;;;;5012011;28;20228;-78
2022/08/12 11:25:24;;;;;;;1.40;0.90;;;34.50;45.00;;;;;;5054344;28;20854;-81
2022/08/12 11:28:38;;;;;;;1.40;0.80;;;34.60;45.10;;;;;;5042717;28;20242;-80
2022/08/12 11:31:41;;;;;;;1.40;0.90;;;34.60;44.70;;;;;;4971902;28;20404;-79
2022/08/12 11:34:21;;;;;;;1.40;0.80;;;34.50;44.60;;;;;;4980724;28;20287;-81
2022/08/12 11:37:10;;;;;;;1.40;1.00;;;34.80;44.60;;;;;;5040257;28;20230;-79
2022/08/12 11:40:04;;;;;;;1.40;0.80;;;34.70;44.90;;;;;;5046135;28;20232;-79
2022/08/12 11:42:53;;;;;;;1.40;0.80;;;34.80;44.60;;;;;;5032785;28;20246;-79
2022/08/12 11:45:46;;;;;;;1.60;1.33;;;34.90;44.50;;;;;;5050022;28;20231;-79
2022/08/12 11:48:50;;;;;;;1.40;0.80;;;34.70;44.60;;;;;;5021246;28;20242;-79
2022/08/12 11:51:53;;;;;;;1.40;0.80;;;34.60;43.90;;;;;;5036403;28;21269;-80
2022/08/12 11:57:52;;;;;;;1.40;0.80;;;34.90;44.50;;;;;;5005189;28;20313;-79
2022/08/12 12:00:27;;;;;;;1.40;0.80;;;35.40;44.60;;;;;;5034649;28;20208;-78
2022/08/12 12:03:18;;;;;;;1.40;0.80;;;35.30;43.90;;;;;;5011007;28;20296;-79
2022/08/12 12:05:46;;;;;;;1.40;0.80;;;35.30;43.50;;;;;;5034647;28;20256;-79
2022/08/12 12:08:30;;;;;;;1.40;0.80;;;35.20;44.10;;;;;;5016375;28;20288;-80
2022/08/12 12:11:42;;;;;;;;;;;;;;;;;;;;;
2022/08/12 12:15:17;;;;;;;;;;;;;;;;;;;;;
2022/08/12 12:20:35;;;;;;;1.40;0.80;;;35.60;42.10;;;;;;5035410;28;20219;-76
2022/08/12 12:23:03;;;;;;;1.40;0.80;;;35.50;43.10;;;;;;5005258;28;20238;-78
2022/08/12 12:25:34;;;;;;;1.40;0.80;;;35.80;43.10;;;;;;5032069;28;20231;-76
2022/08/12 12:28:30;;;;;;;1.40;0.80;;;36.10;43.20;;;;;;5018100;28;20288;-79
2022/08/12 12:31:01;;;;;;;1.40;0.80;;;36.10;41.30;;;;;;5027265;28;20710;-80
2022/08/12 12:33:57;;;;;;;1.40;0.80;;;35.90;41.80;;;;;;5023685;28;20286;-79
2022/08/12 12:36:34;;;;;;;1.40;0.90;;;35.80;42.70;;;;;;5022722;28;20258;-79
2022/08/12 12:39:04;;;;;;;1.40;0.80;;;35.80;42.70;;;;;;5021601;28;20234;-79
2022/08/12 12:41:41;;;;;;;1.40;0.80;;;35.80;41.80;;;;;;5022244;28;20307;-79
2022/08/12 12:44:28;;;;;;;1.40;0.80;;;36.00;43.30;;;;;;5045435;28;20211;-80
2022/08/12 12:47:04;;;;;;;1.40;0.80;;;36.50;42.00;;;;;;5029006;28;20235;-78
2022/08/12 12:49:43;;;;;;;1.40;0.80;;;36.60;42.00;;;;;;5034408;28;20246;-81
2022/08/12 12:52:27;;;;;;;1.40;0.80;;;36.50;42.10;;;;;;5008886;28;20329;-79
2022/08/12 12:55:27;;;;;;;1.40;0.80;;;36.50;40.90;;;;;;5004637;28;20240;-80
2022/08/12 13:03:07;;;;;;;1.40;0.80;;;36.20;41.40;;;;;;4373141;26;20664;-78
2022/08/12 13:05:41;;;;;;;1.40;0.80;;;36.50;41.70;;;;;;5093726;28;20226;-79
2022/08/12 13:11:46;;;;;;;1.40;0.90;;;36.80;40.20;;;;;;5086623;27;20232;-79
2022/08/12 13:14:18;;;;;;;1.40;0.80;;;36.60;40.40;;;;;;5101894;27;20202;-78
2022/08/12 13:16:48;;;;;;;1.40;0.80;;;36.30;40.10;;;;;;5096830;27;20834;-81
2022/08/12 13:22:34;;;;;;;1.40;0.80;;;36.40;39.90;;;;;;5064507;28;20254;-79
2022/08/12 13:25:01;;;;;;;1.33;0.80;;;36.40;40.40;;;;;;5083921;28;20222;-79
2022/08/12 13:27:35;;;;;;;1.40;0.80;;;36.20;41.40;;;;;;5106917;27;20302;-79
2022/08/12 13:30:30;;;;;;;1.38;0.80;;;36.40;41.30;;;;;;5096679;27;20205;-80
2022/08/12 13:33:09;;;;;;;1.40;0.80;;;36.50;41.90;;;;;;5081464;28;20232;-78
2022/08/12 13:35:39;;;;;;;1.40;0.82;;;36.60;40.80;;;;;;5090701;28;20225;-80
2022/08/12 13:38:37;;;;;;;1.40;0.90;;;36.50;40.80;;;;;;5108202;27;20289;-79
2022/08/12 13:41:05;;;;;;;1.40;0.80;;;36.30;41.00;;;;;;5048967;27;20206;-78
2022/08/12 13:43:43;;;;;;;1.40;0.85;;;36.10;40.80;;;;;;5112943;27;20503;-79
2022/08/12 13:46:43;;;;;;;1.40;0.80;;;36.00;41.00;;;;;;5079550;27;20237;-79
2022/08/12 13:49:20;;;;;;;1.40;0.80;;;36.00;41.30;;;;;;5099333;27;20231;-79
2022/08/12 13:51:53;;;;;;;1.38;0.80;;;35.90;41.00;;;;;;5078956;27;20772;-78
2022/08/12 13:54:28;;;;;;;1.38;0.80;;;36.20;42.00;;;;;;5101348;27;20505;-79
2022/08/12 13:57:13;;;;;;;1.40;0.80;;;36.10;40.50;;;;;;5092233;27;20239;-79
2022/08/12 13:59:44;;;;;;;1.40;0.80;;;36.20;41.40;;;;;;5085044;27;20226;-78
2022/08/12 14:02:22;;;;;;;1.40;0.80;;;36.10;39.90;;;;;;5101915;27;20238;-78
2022/08/12 16:36:06;;;;;;;1.40;0.80;;;33.80;40.50;;;;;;5074293;28;20234;-79
2022/08/12 16:38:46;;;;;;;1.93;1.07;;;33.80;40.00;;;;;;5083167;28;20241;-79
2022/08/12 16:41:29;;;;;;;1.40;0.80;;;33.60;40.20;;;;;;5077598;27;20236;-80
2022/08/12 16:43:59;;;;;;;1.40;0.80;;;33.60;40.30;;;;;;5104309;27;20202;-77
2022/08/12 16:46:28;;;;;;;1.40;0.80;;;33.60;41.00;;;;;;5078017;27;20724;-78
2022/08/12 16:48:56;;;;;;;2.23;1.27;;;33.50;41.50;;;;;;5105851;27;20229;-78
2022/08/12 16:51:27;;;;;;;1.40;0.80;;;33.50;41.00;;;;;;5085984;27;20236;-78
2022/08/12 16:54:07;;;;;;;1.40;0.80;;;33.30;40.90;;;;;;5107805;27;20266;-79
2022/08/12 16:56:37;;;;;;;1.40;0.80;;;33.20;41.40;;;;;;5084307;28;20198;-77
2022/08/12 16:59:05;;;;;;;1.50;1.00;;;33.10;41.90;;;;;;5087862;28;20694;-79
2022/08/12 17:01:41;;;;;;;1.40;0.80;;;33.00;41.60;;;;;;5083569;28;20616;-79
2022/08/12 17:07:15;;;;;;;1.40;0.80;;;32.90;41.90;;;;;;5085176;28;20209;-78
2022/08/12 17:09:44;;;;;;;1.63;1.30;;;32.90;42.40;;;;;;5084976;28;20230;-77
2022/08/12 17:12:17;;;;;;;1.40;0.80;;;32.80;41.50;;;;;;5090157;28;20578;-76
2022/08/12 17:14:46;;;;;;;1.40;0.80;;;32.70;41.70;;;;;;5080958;28;20544;-78
2022/08/12 17:17:15;;;;;;;1.40;0.80;;;32.60;41.50;;;;;;5087422;28;20463;-79
2022/08/12 17:19:46;;;;;;;1.47;0.90;;;32.50;41.70;;;;;;5087982;28;20503;-78
2022/08/12 17:22:22;;;;;;;1.90;1.67;;;32.40;42.20;;;;;;5105412;28;20563;-80
2022/08/12 17:27:51;;;;;;;1.40;0.80;;;32.20;42.60;;;;;;5091759;23;20460;-80
2022/08/12 17:30:23;;;;;;;1.60;1.10;;;32.10;43.00;;;;;;5032329;28;20530;-79
2022/08/12 17:33:27;;;;;;;1.50;1.10;;;32.10;43.20;;;;;;5030289;28;20534;-80
2022/08/12 17:35:57;;;;;;;1.40;0.80;;;32.00;43.10;;;;;;5023717;28;20520;-79
2022/08/12 17:38:44;;;;;;;1.40;0.80;;;31.90;43.50;;;;;;5028943;28;20507;-80
2022/08/12 17:41:31;;;;;;;1.40;0.80;;;31.90;43.70;;;;;;4999153;28;20695;-79
2022/08/12 17:44:03;;;;;;;1.43;0.80;;;31.80;43.60;;;;;;5024256;28;20555;-80
2022/08/12 17:46:38;;;;;;;1.40;0.80;;;31.80;44.10;;;;;;5008637;28;20992;-77
2022/08/12 17:49:11;;;;;;;1.40;0.90;;;31.70;44.00;;;;;;5019971;28;20482;-77
2022/08/12 17:51:44;;;;;;;1.40;0.90;;;31.60;44.30;;;;;;5003633;28;20566;-78
2022/08/12 17:54:27;;;;;;;1.40;0.80;;;31.50;44.50;;;;;;5016815;28;20472;-78
2022/08/12 17:57:16;;;;;;;1.40;0.80;;;31.40;44.60;;;;;;5016484;28;20463;-78
2022/08/12 18:00:06;;;;;;;;;;;;;;;;;;;;;
2022/08/12 18:02:46;;;;;;;1.50;0.90;;;31.40;44.70;;;;;;5021437;28;20482;-78
2022/08/12 18:05:37;;;;;;;1.47;0.80;;;31.20;44.40;;;;;;5021054;28;20513;-79
2022/08/12 18:08:19;;;;;;;1.50;1.13;;;31.10;44.70;;;;;;5048000;23;20573;-76
2022/08/12 18:13:57;;;;;;;1.40;0.90;;;31.00;45.30;;;;;;5048312;28;20463;-78
2022/08/12 18:17:01;;;;;;;1.47;0.80;;;30.90;45.50;;;;;;5063210;28;20485;-78
2022/08/12 18:19:53;;;;;;;1.40;0.83;;;30.80;45.20;;;;;;5068888;28;20734;-79
2022/08/12 18:22:49;;;;;;;1.43;0.80;;;30.80;45.50;;;;;;5076494;28;20472;-79
2022/08/12 18:28:43;;;;;;;1.50;1.00;;;30.60;46.00;;;;;;5024001;28;20475;-78
2022/08/12 18:31:33;;;;;;;1.40;0.80;;;30.50;46.30;;;;;;5018233;28;20924;-79
2022/08/12 18:34:12;;;;;;;1.40;0.80;;;30.40;46.00;;;;;;5024646;28;20454;-78
2022/08/12 18:42:49;;;;;;;1.43;0.80;;;30.20;46.80;;;;;;5069530;28;20526;-77
2022/08/12 18:45:31;;;;;;;1.40;0.90;;;30.10;47.40;;;;;;5078084;28;20464;-78
2022/08/12 18:48:01;;;;;;;1.50;0.90;;;30.00;47.40;;;;;;5076965;28;20560;-78
2022/08/12 18:53:55;;;;;;;1.43;0.80;;;29.80;47.70;;;;;;5044165;28;20544;-79
2022/08/12 18:59:20;;;;;;;1.43;0.80;;;29.50;48.60;;;;;;5073251;28;20560;-77
2022/08/12 19:01:55;;;;;;;1.47;0.90;;;29.40;48.80;;;;;;5062744;28;20481;-78
2022/08/12 19:04:32;;;;;;;1.43;0.80;;;29.40;49.30;;;;;;5079051;28;20456;-78
2022/08/12 19:07:00;;;;;;;1.47;0.80;;;29.30;49.30;;;;;;5070212;28;20994;-77
2022/08/12 19:09:35;;;;;;;1.43;0.90;;;29.20;49.50;;;;;;5078062;28;20542;-78
2022/08/12 19:14:50;;;;;;;1.50;1.00;;;29.10;50.10;;;;;;5076178;28;20449;-78
2022/08/12 19:17:21;;;;;;;1.47;0.80;;;29.00;50.30;;;;;;5066332;28;20992;-77
2022/08/12 19:19:50;;;;;;;1.43;0.80;;;28.90;50.60;;;;;;5078184;28;20483;-76
2022/08/12 19:22:18;;;;;;;1.43;0.87;;;28.90;50.70;;;;;;5064038;28;20538;-78
2022/08/12 19:27:32;;;;;;;1.50;0.80;;;28.70;51.10;;;;;;5064533;28;21033;-78
2022/08/12 19:30:01;;;;;;;1.50;1.07;;;28.60;51.10;;;;;;5081851;28;20475;-78
2022/08/12 19:32:30;;;;;;;1.40;0.80;;;28.60;51.40;;;;;;5082195;28;20521;-77
2022/08/12 19:35:01;;;;;;;1.50;0.80;;;28.50;51.30;;;;;;5081733;28;20460;-78
2022/08/12 19:37:34;;;;;;;1.47;0.80;;;28.40;51.40;;;;;;5075928;28;20457;-78
2022/08/12 19:40:14;;;;;;;1.40;0.80;;;28.40;51.60;;;;;;5078327;28;20697;-77
2022/08/12 19:42:43;;;;;;;1.43;0.90;;;28.30;51.80;;;;;;5067576;28;20480;-79
2022/08/12 19:45:20;;;;;;;1.47;0.90;;;28.20;51.80;;;;;;5079999;28;20544;-81
2022/08/12 19:47:48;;;;;;;1.43;0.80;;;28.20;52.20;;;;;;5072646;28;20596;-79
2022/08/12 19:50:17;;;;;;;1.60;1.10;;;28.10;52.50;;;;;;5078133;28;20915;-79
2022/08/12 19:52:49;;;;;;;1.47;0.80;;;28.00;52.50;;;;;;5070538;28;20823;-79
2022/08/12 19:55:23;;;;;;;1.50;1.00;;;28.00;52.90;;;;;;5080525;28;20467;-78
2022/08/12 19:58:03;;;;;;;1.43;0.80;;;27.90;52.80;;;;;;5067721;28;20484;-79